Latest Weather Observations for Maatsuyker Island

IDT60801

Issued at 8:02 am EDT Saturday 16 February 2019 (issued every 10 minutes, with the page automatically refreshed every 10 minutes)

About weather observations | Map of weather stations | Latest weather observations for TAS | Other Formats
Station Details ID: 094041 Name: MAATSUYKER ISLAND LIGHTHOUSE Lat: -43.66 Lon: 146.27 Height: 146.5 m
Data from the previous 72 hours. | See also: Recent months at Maatsuyker Island
Date/Time
EDT
Temp
°C
App
Temp
°C
Dew
Point
°C
Rel
Hum
%
Delta-T
°C
Wind Press
QNH
hPa
Press
MSL
hPa
Rain since
9am
mm
Dir  Spd
km/h
Gust
km/h
Spd
kts
Gust
kts
16/07:30am 13.9 - - - - NNW 22 30 12 16 1019.5 - 0.0
16/07:00am 13.8 - - - - NNW 24 30 13 16 1019.5 - 0.0
16/06:30am 13.7 - - - - NNW 28 33 15 18 1019.6 - 0.0
16/06:00am 13.5 - - - - NNW 24 28 13 15 1019.4 1019.3 0.0
16/05:30am 13.8 - - - - NNW 24 30 13 16 1019.6 - 0.0
16/05:00am 14.0 - - - - N 26 30 14 16 1019.9 - 0.0
16/04:30am 13.8 - - - - NNW 15 17 8 9 1020.0 - 0.0
16/04:00am 13.9 - - - - N 15 17 8 9 1020.2 - 0.0
16/03:30am 13.7 - - - - N 13 15 7 8 1020.2 - 0.0
16/03:00am 13.4 - - - - N 2 9 1 5 1020.3 1020.2 0.0
16/02:30am 13.5 - - - - N 7 13 4 7 1020.7 - 0.0
16/02:00am 13.7 - - - - NE 7 13 4 7 1020.9 - 0.0
16/01:30am 13.6 - - - - ENE 7 11 4 6 1021.4 - 0.0
16/01:00am 13.6 - - - - N 7 15 4 8 1021.6 - 0.0
16/12:30am 13.7 - - - - NNW 7 13 4 7 1021.9 - 0.0
16/12:00am 13.6 - - - - NNW 7 13 4 7 1022.4 1022.4 0.0
 
Date/Time
EDT
Temp
°C
App
Temp
°C
Dew
Point
°C
Rel
Hum
%
Delta-T
°C
Wind Press
QNH
hPa
Press
MSL
hPa
Rain since
9am
mm
Dir  Spd
km/h
Gust
km/h
Spd
kts
Gust
kts
15/11:30pm 13.4 - - - - WNW 7 17 4 9 1022.7 - 0.0
15/11:00pm 13.4 - - - - NNW 7 11 4 6 1023.0 - 0.0
15/10:30pm 13.4 - - - - WNW 6 15 3 8 1023.6 - 0.0
15/10:00pm 13.4 - - - - NNW 4 7 2 4 1023.9 - 0.0
15/09:30pm 13.4 - - - - CALM 0 6 0 3 1024.0 - 0.0
15/09:00pm 13.3 - - - - N 2 13 1 7 1024.0 1023.9 0.0
15/08:30pm 13.3 - - - - SSE 15 20 8 11 1023.7 - 0.0
15/08:00pm 13.5 - - - - S 11 15 6 8 1023.5 - 0.0
15/07:30pm 13.7 - - - - SSW 9 13 5 7 1023.5 - 0.0
15/07:00pm 14.0 - - - - WSW 13 17 7 9 1023.3 - 0.0
15/06:30pm 14.1 - - - - W 17 24 9 13 1023.2 - 0.0
15/06:00pm 15.0 - - - - W 19 24 10 13 1023.2 1023.2 0.0
15/05:30pm 15.1 - - - - WNW 26 32 14 17 1023.5 - 0.0
15/05:00pm 14.6 - - - - WNW 26 32 14 17 1023.5 - 0.0
15/04:30pm 15.0 - - - - WNW 30 35 16 19 1023.3 - 0.0
15/04:00pm 14.8 - - - - WNW 37 41 20 22 1023.3 - 0.0
15/03:30pm 14.2 - - - - NW 35 39 19 21 1023.3 - 0.0
15/03:28pm 14.2 - - - - NW 35 39 19 21 1023.5 - 0.0
15/03:26pm 14.1 - - - - N 37 41 20 22 1023.3 - 0.0
15/03:19pm 14.1 - - - - NW 35 35 19 19 1023.6 - 0.0
15/03:00pm 14.1 - - - - NNE 41 46 22 25 1023.5 1023.4 0.0
15/02:59pm 14.2 - - - - NNE 39 43 21 23 1023.5 - 0.0
15/02:58pm 14.3 - - - - N 39 43 21 23 1023.5 - 0.0
15/02:57pm 14.1 - - - - NW 37 41 20 22 1023.6 - 0.0
15/02:46pm 14.1 - - - - NNW 35 41 19 22 1023.7 - 0.0
15/02:35pm 15.3 - - - - WNW 37 39 20 21 1023.8 - 0.0
15/02:30pm 14.8 - - - - N 39 43 21 23 1023.7 - 0.0
15/02:17pm 14.8 - - - - WNW 39 43 21 23 1023.8 - 0.0
15/02:00pm 14.2 - - - - N 39 41 21 22 1023.8 - 0.0
15/01:58pm 14.2 - - - - N 37 39 20 21 1023.9 - 0.0
15/01:47pm 13.9 - - - - NW 35 39 19 21 1023.8 - 0.0
15/01:30pm 14.0 - - - - NNE 39 44 21 24 1023.7 - 0.0
15/01:11pm 13.7 - - - - N 35 41 19 22 1023.8 - 0.0
15/01:07pm 13.6 - - - - NNW 39 43 21 23 1023.7 - 0.0
15/01:05pm 13.7 - - - - NNE 41 44 22 24 1023.6 - 0.0
15/01:00pm 13.9 - - - - NW 39 44 21 24 1023.7 - 0.0
15/12:52pm 13.7 - - - - NW 39 44 21 24 1023.7 - 0.0
15/12:47pm 13.6 - - - - NNE 39 44 21 24 1023.6 - 0.0
15/12:42pm 13.7 - - - - WNW 37 43 20 23 1023.8 - 0.0
15/12:30pm 13.6 - - - - NNW 39 43 21 23 1023.8 - 0.0
15/12:23pm 13.5 - - - - NNW 39 43 21 23 1023.8 - 0.0
15/12:20pm 13.5 - - - - NNE 41 44 22 24 1023.7 - 0.0
15/12:19pm 13.4 - - - - N 39 44 21 24 1023.7 - 0.0
15/12:00pm 13.7 - - - - NW 39 44 21 24 1023.9 1023.8 0.0
15/11:57am 13.6 - - - - NW 39 44 21 24 1023.9 - 0.0
15/11:55am 13.8 - - - - NNW 39 44 21 24 1023.9 - 0.0
15/11:30am 13.6 - - - - WNW 43 46 23 25 1023.9 - 0.0
15/11:00am 13.3 - - - - NW 43 46 23 25 1023.6 - 0.0
15/10:43am 13.3 - - - - NW 41 44 22 24 1023.5 - 0.0
15/10:39am 13.3 - - - - N 43 48 23 26 1023.3 - 0.0
15/10:30am 13.4 - - - - WNW 43 46 23 25 1023.3 - 0.0
15/10:00am 13.2 - - - - NW 43 48 23 26 1023.0 - 0.0
15/09:51am 13.3 - - - - NW 39 44 21 24 1022.9 - 0.0
15/09:49am 13.1 - - - - N 43 46 23 25 1022.8 - 0.0
15/09:43am 13.1 - - - - NW 43 44 23 24 1022.8 - 0.0
15/09:42am 12.9 - - - - N 43 46 23 25 1022.7 - 0.0
15/09:30am 12.8 - - - - WNW 44 48 24 26 1022.7 - 0.0
15/09:00am 12.9 - - - - NW 50 - 27 - - 1022.3 5.0
15/08:55am 13.0 - - - - WNW 48 54 26 29 1022.1 - 4.6
15/08:44am 12.8 - - - - N 46 50 25 27 1021.9 - 4.6
15/08:30am 12.7 - - - - WNW 39 46 21 25 1022.0 - 4.4
15/08:00am 13.0 - - - - WNW 48 52 26 28 1021.2 - 3.6
15/07:48am 12.9 - - - - WNW 54 56 29 30 1021.1 - 3.0
15/07:46am 13.1 - - - - NNW 56 59 30 32 1020.8 - 3.0
15/07:30am 13.0 - - - - NNE 56 63 30 34 1020.2 - 3.0
15/07:24am 13.2 - - - - NNE 56 61 30 33 1020.2 - 3.0
15/07:22am 13.1 - - - - NW 50 54 27 29 1020.5 - 3.0
15/07:11am 12.9 - - - - NNE 50 56 27 30 1020.3 - 3.0
15/07:09am 12.8 - - - - NNW 50 56 27 30 1020.3 - 3.0
15/07:04am 12.6 - - - - NNE 57 61 31 33 1020.0 - 3.0
15/07:00am 12.7 - - - - NW 57 63 31 34 1020.1 - 3.0
15/06:43am 12.9 - - - - NW 57 61 31 33 1019.7 - 2.4
15/06:30am 13.0 - - - - N 57 63 31 34 1019.5 - 2.4
15/06:04am 13.0 - - - - N 54 57 29 31 1019.3 - 2.2
15/06:00am 12.9 - - - - NW 57 - 31 - - 1019.1 -
15/05:55am 13.0 - - - - NW 57 61 31 33 1019.2 - 1.8
15/05:30am 13.4 - - - - N 57 65 31 35 1018.9 - 1.8
15/05:13am 13.2 - - - - NNE 59 65 32 35 1018.5 - 1.8
15/05:06am 13.4 - - - - NNW 56 59 30 32 1018.7 - 1.8
15/05:01am 13.3 - - - - N 57 63 31 34 1018.5 - 1.8
15/05:00am 13.4 - - - - NNW 57 65 31 35 1018.6 - 1.8
15/04:58am 13.2 - - - - NNW 61 65 33 35 1018.6 - 1.8
15/04:55am 13.1 - - - - N 57 63 31 34 1018.4 - 1.8
15/04:52am 13.1 - - - - NW 57 63 31 34 1018.7 - 1.8
15/04:30am 13.2 - - - - N 56 65 30 35 1018.1 - 1.8
15/04:00am 13.0 - - - - N 59 65 32 35 1018.0 - 1.8
15/03:34am 13.3 - - - - N 61 63 33 34 1017.9 - 1.8
15/03:30am 13.4 - - - - NNW 59 65 32 35 1017.9 - 1.8
15/03:03am 13.2 - - - - NNW 54 61 29 33 1017.7 - 1.8
15/03:00am 13.2 - - - - WNW 57 61 31 33 1017.8 1017.7 1.8
15/02:57am 13.2 - - - - WSW 61 63 33 34 1017.7 - 1.8
15/02:53am 13.2 - - - - NNW 61 69 33 37 1017.6 - 1.8
15/02:48am 13.2 - - - - WSW 57 65 31 35 1017.7 - 1.8
15/02:44am 13.3 - - - - W 54 57 29 31 1017.8 - 1.8
15/02:42am 13.2 - - - - SSW 59 65 32 35 1017.6 - 1.8
15/02:35am 13.1 - - - - W 57 61 31 33 1017.7 - 1.8
15/02:34am 13.1 - - - - NNW 57 61 31 33 1017.6 - 1.8
15/02:33am 13.2 - - - - N 57 61 31 33 1017.6 - 1.8
15/02:30am 13.1 - - - - WNW 56 61 30 33 1017.7 - 1.8
15/02:29am 13.1 - - - - WNW 56 61 30 33 1017.7 - 1.8
15/02:27am 13.1 - - - - WSW 57 65 31 35 1017.6 - 1.8
15/02:26am 13.1 - - - - NNW 57 65 31 35 1017.5 - 1.8
15/02:25am 13.2 - - - - N 56 61 30 33 1017.6 - 1.8
15/02:24am 13.1 - - - - NW 57 61 31 33 1017.5 - 1.8
15/02:23am 13.0 - - - - W 57 61 31 33 1017.5 - 1.8
15/02:20am 13.1 - - - - N 59 65 32 35 1017.3 - 1.8
15/02:19am 13.1 - - - - NW 57 65 31 35 1017.4 - 1.8
15/02:17am 13.2 - - - - WSW 59 65 32 35 1017.4 - 1.8
15/02:16am 13.1 - - - - NNW 59 65 32 35 1017.4 - 1.8
15/02:15am 13.1 - - - - N 59 65 32 35 1017.4 - 1.8
15/02:08am 13.0 - - - - SW 59 61 32 33 1017.4 - 1.8
15/02:07am 13.0 - - - - W 57 61 31 33 1017.4 - 1.8
15/02:05am 13.1 - - - - N 57 61 31 33 1017.4 - 1.8
15/02:00am 12.9 - - - - SW 57 65 31 35 1017.4 - 1.8
15/01:55am 12.7 - - - - SW 59 65 32 35 1017.4 - 1.8
15/01:54am 12.8 - - - - WSW 61 63 33 34 1017.4 - 1.8
15/01:53am 12.9 - - - - NW 57 63 31 34 1017.3 - 1.8
15/01:41am 13.0 - - - - SW 63 69 34 37 1017.2 - 1.8
15/01:37am 13.2 - - - - W 57 67 31 36 1017.3 - 1.6
15/01:36am 13.2 - - - - WSW 56 61 30 33 1017.4 - 1.6
15/01:35am 13.1 - - - - NNW 56 61 30 33 1017.4 - 1.6
15/01:34am 13.1 - - - - N 57 61 31 33 1017.2 - 1.6
15/01:32am 13.1 - - - - WNW 59 61 32 33 1017.2 - 1.6
15/01:31am 13.1 - - - - WSW 61 65 33 35 1017.2 - 1.6
15/01:30am 13.2 - - - - NW 61 69 33 37 1017.1 - 1.6
15/01:29am 13.0 - - - - N 61 69 33 37 1017.1 - 1.6
15/01:28am 13.1 - - - - W 63 69 34 37 1017.1 - 1.6
15/01:27am 13.1 - - - - WSW 63 69 34 37 1017.1 - 1.6
15/01:26am 13.1 - - - - NNW 63 69 34 37 1017.0 - 1.6
15/01:25am 13.1 - - - - N 65 69 35 37 1017.0 - 1.6
15/01:05am 13.3 - - - - SW 57 65 31 35 1017.0 - 1.6
15/01:02am 13.4 - - - - NNE 57 65 31 35 1017.0 - 1.6
15/01:00am 13.4 - - - - NNW 61 65 33 35 1016.9 - 1.6
15/12:59am 13.5 - - - - N 61 65 33 35 1016.8 - 1.6
15/12:37am 13.2 - - - - SW 61 69 33 37 1016.7 - 1.6
15/12:36am 13.1 - - - - S 61 69 33 37 1016.7 - 1.6
15/12:34am 13.0 - - - - WSW 59 65 32 35 1016.9 - 1.6
15/12:32am 13.1 - - - - SSW 61 70 33 38 1016.6 - 1.6
15/12:30am 13.2 - - - - W 57 63 31 34 1016.7 - 1.6
15/12:25am 13.3 - - - - SSW 65 69 35 37 1016.7 - 1.6
15/12:18am 13.4 - - - - N 63 70 34 38 1016.4 - 1.6
15/12:16am 13.4 - - - - W 65 69 35 37 1016.4 - 1.6
15/12:13am 13.2 - - - - N 67 72 36 39 1016.2 - 1.6
15/12:12am 13.2 - - - - NW 67 72 36 39 1016.1 - 1.6
15/12:01am 13.4 - - - - SSW 72 76 39 41 1016.0 - 1.6
15/12:00am 13.3 - - - - N 70 78 38 42 1015.9 1015.9 1.6
 
Date/Time
EDT
Temp
°C
App
Temp
°C
Dew
Point
°C
Rel
Hum
%
Delta-T
°C
Wind Press
QNH
hPa
Press
MSL
hPa
Rain since
9am
mm
Dir  Spd
km/h
Gust
km/h
Spd
kts
Gust
kts
14/11:59pm 13.4 - - - - N 70 78 38 42 1015.9 - 1.6
14/11:52pm 13.4 - - - - SSW 67 72 36 39 1016.1 - 1.6
14/11:51pm 13.4 - - - - W 69 74 37 40 1016.0 - 1.6
14/11:50pm 13.3 - - - - NW 69 74 37 40 1016.0 - 1.6
14/11:45pm 13.4 - - - - SW 65 70 35 38 1016.0 - 1.4
14/11:42pm 13.3 - - - - W 63 67 34 36 1016.1 - 1.4
14/11:40pm 13.5 - - - - NW 65 72 35 39 1015.9 - 1.4
14/11:34pm 13.4 - - - - N 67 70 36 38 1015.8 - 1.4
14/11:33pm 13.6 - - - - NW 67 70 36 38 1015.7 - 1.4
14/11:30pm 13.3 - - - - SSW 65 76 35 41 1015.9 - 1.4
14/11:24pm 13.1 - - - - SSW 65 76 35 41 1015.8 - 1.4
14/11:23pm 13.1 - - - - WSW 67 76 36 41 1015.7 - 1.4
14/11:22pm 13.1 - - - - WNW 65 74 35 40 1015.9 - 1.4
14/11:19pm 13.2 - - - - SW 69 72 37 39 1015.7 - 1.4
14/11:18pm 13.3 - - - - WNW 69 74 37 40 1015.7 - 1.4
14/11:13pm 13.5 - - - - SW 72 76 39 41 1015.5 - 1.2
14/11:00pm 13.8 - - - - N 74 82 40 44 1015.2 - 1.2
14/10:59pm 13.9 - - - - N 76 82 41 44 1015.0 - 1.2
14/10:56pm 13.9 - - - - WSW 76 80 41 43 1015.0 - 1.2
14/10:55pm 13.9 - - - - SW 76 80 41 43 1015.1 - 1.2
14/10:43pm 13.7 - - - - N 74 83 40 45 1014.8 - 1.2
14/10:36pm 13.8 - - - - WSW 72 80 39 43 1014.9 - 1.2
14/10:30pm 13.9 - - - - NNE 76 83 41 45 1014.7 - 1.2
14/10:00pm 14.0 - - - - N 74 87 40 47 1014.7 - 1.2
14/09:30pm 13.9 - - - - NNE 78 87 42 47 1014.0 - 1.2
14/09:00pm 14.0 - - - - NNE 78 91 42 49 1013.0 1012.9 1.2
14/08:30pm 13.9 - - - - NNE 83 95 45 51 1012.4 - 1.2
14/08:00pm 13.9 - - - - NNE 85 100 46 54 1011.7 - 1.2
14/07:30pm 14.3 - - - - NNE 85 96 46 52 1011.8 - 1.2
14/07:00pm 14.2 - - - - NNE 83 96 45 52 1010.9 - 1.2
14/06:30pm 14.3 - - - - NNE 91 106 49 57 1010.9 - 1.2
14/06:00pm 14.2 - - - - NNE 87 96 47 52 1010.6 1010.5 1.2
14/05:30pm 14.2 - - - - NNE 87 98 47 53 1009.8 - 1.2
14/05:19pm 14.4 - - - - NNE 87 106 47 57 1009.8 - 1.2
14/05:00pm 14.2 - - - - NNE 91 104 49 56 1009.3 - 1.2
14/04:30pm 14.3 - - - - NNE 87 100 47 54 1009.1 - 1.2
14/04:00pm 14.3 - - - - N 85 98 46 53 1008.8 - 1.2
14/03:30pm 13.9 - - - - NNE 89 102 48 55 1008.4 - 1.2
14/03:00pm 14.0 - - - - NNE 87 100 47 54 1008.3 1008.2 1.2
14/02:30pm 13.9 - - - - N 87 100 47 54 1007.6 - 1.2
14/02:00pm 13.6 - - - - NNE 95 106 51 57 1007.5 - 1.2
14/01:30pm 13.5 - - - - N 93 104 50 56 1007.5 - 1.2
14/01:00pm 13.3 - - - - N 89 100 48 54 1007.4 - 1.2
14/12:30pm 13.0 - - - - N 83 96 45 52 1007.0 - 1.2
14/12:00pm 13.1 - - - - N 83 93 45 50 1007.4 1007.3 1.0
14/11:30am 12.9 - - - - NNE 85 96 46 52 1007.0 - 1.0
14/11:05am 13.0 - - - - N 83 93 45 50 1006.6 - 1.0
14/11:04am 13.2 - - - - NW 83 95 45 51 1007.1 - 1.0
14/11:03am 12.9 - - - - W 85 95 46 51 1007.2 - 1.0
14/11:02am 12.7 - - - - NW 87 95 47 51 1007.2 - 1.0
14/11:00am 13.0 - - - - N 87 100 47 54 1007.0 - 1.0
14/10:30am 12.8 - - - - N 91 102 49 55 1006.2 - 0.8
14/10:03am 12.6 - - - - N 98 107 53 58 1005.7 - 0.8
14/10:01am 12.7 - - - - NW 87 102 47 55 1006.3 - 0.8
14/10:00am 12.7 - - - - N 89 102 48 55 1006.1 - 0.8
14/09:30am 12.6 - - - - N 95 109 51 59 1005.4 - 0.2
14/09:00am 12.4 - - - - N 96 109 52 59 1004.5 1004.4 2.0
14/08:36am 12.5 - - - - N 85 104 46 56 1004.9 - 2.0
14/08:30am 12.5 - - - - N 93 104 50 56 1004.4 - 2.0
14/08:03am 12.5 - - - - N 100 119 54 64 1003.6 - 1.8
14/08:00am 12.2 - - - - N 102 119 55 64 1003.1 - 1.8
14/07:30am 12.5 - - - - N 89 109 48 59 1003.7 - 1.4
14/07:01am 12.9 - - - - N 87 106 47 57 1002.5 - 0.8
14/07:00am 13.0 - - - - N 89 106 48 57 1002.8 - 0.8
14/06:30am 12.9 - - - - N 98 113 53 61 1001.4 - 0.8
14/06:08am 12.0 - - - - NNE 104 122 56 66 1001.2 - 0.8
14/06:00am 13.5 - - - - NNE 96 109 52 59 1001.2 1001.1 0.8
14/05:30am 13.0 - - - - N 93 111 50 60 1000.8 - 0.8
14/05:08am 13.6 - - - - NNE 98 119 53 64 1000.4 - 0.8
14/05:00am 13.5 - - - - N 98 115 53 62 1000.5 - 0.8
14/04:35am 13.2 - - - - NNE 104 126 56 68 999.8 - 0.8
14/04:30am 13.5 - - - - N 102 119 55 64 1000.3 - 0.8
14/04:00am 13.3 - - - - N 100 120 54 65 1000.2 - 0.8
14/03:33am 13.3 - - - - N 100 122 54 66 1000.1 - 0.8
14/03:30am 13.3 - - - - N 100 117 54 63 1000.0 - 0.8
14/03:00am 13.2 - - - - NNE 95 115 51 62 1000.0 999.9 0.8
14/02:36am 12.8 - - - - N 95 113 51 61 1000.4 - 0.8
14/02:30am 12.6 - - - - N 95 109 51 59 1000.3 - 0.8
14/02:00am 13.0 - - - - N 87 113 47 61 1001.2 - 0.6
14/01:30am 12.9 - - - - N 78 96 42 52 1001.9 - 0.6
14/01:02am 12.3 - - - - N 85 104 46 56 1001.8 - 0.6
14/01:00am 12.2 - - - - N 87 104 47 56 1002.1 - 0.6
14/12:33am 12.2 - - - - N 83 102 45 55 1002.1 - 0.4
14/12:30am 12.5 - - - - N 85 102 46 55 1002.3 - 0.4
14/12:00am 12.8 - - - - N 82 100 44 54 1002.7 1002.5 0.2
 
Date/Time
EDT
Temp
°C
App
Temp
°C
Dew
Point
°C
Rel
Hum
%
Delta-T
°C
Wind Press
QNH
hPa
Press
MSL
hPa
Rain since
9am
mm
Dir  Spd
km/h
Gust
km/h
Spd
kts
Gust
kts
13/11:30pm 13.0 - - - - N 83 102 45 55 1002.9 - 0.2
13/11:00pm 12.9 - - - - N 78 104 42 56 1003.1 - 0.2
13/10:41pm 12.8 - - - - N 74 93 40 50 1003.4 - 0.2
13/10:30pm 12.7 - - - - N 72 87 39 47 1003.7 - 0.2
13/10:14pm 12.5 - - - - N 74 93 40 50 1003.7 - 0.2
13/10:00pm 12.5 - - - - N 72 89 39 48 1004.0 - 0.2
13/09:36pm 12.6 - - - - N 76 95 41 51 1004.2 - 0.2
13/09:30pm 12.6 - - - - N 80 95 43 51 1004.0 - 0.2
13/09:06pm 12.1 - - - - N 83 102 45 55 1003.8 - 0.2
13/09:00pm 11.8 - - - - N 89 102 48 55 1003.9 1003.8 0.2
13/08:30pm 12.4 - - - - N 85 98 46 53 1003.5 - 0.2
13/08:08pm 12.3 - - - - N 87 96 47 52 1003.7 - 0.2
13/08:03pm 11.7 - - - - NNW 87 95 47 51 1004.0 - 0.2
13/08:00pm 12.5 - - - - N 78 95 42 51 1003.5 - 0.2
13/07:31pm 12.1 - - - - N 83 102 45 55 1003.5 - 0.2
13/07:30pm 12.2 - - - - N 85 102 46 55 1003.5 - 0.2
13/07:01pm 12.3 - - - - N 83 102 45 55 1003.6 - 0.2
13/07:00pm 12.2 - - - - N 85 102 46 55 1003.6 - 0.2
13/06:30pm 12.4 - - - - N 78 91 42 49 1002.7 - 0.2
13/06:03pm 12.0 - - - - N 85 104 46 56 1002.9 - 0.2
13/06:00pm 12.2 - - - - N 87 104 47 56 1002.6 1002.4 0.2
13/05:55pm 12.2 - - - - N 85 104 46 56 1002.1 - 0.2
13/05:30pm 11.4 - - - - N 76 91 41 49 1003.0 - 0.2
13/05:00pm 12.1 - - - - N 76 83 41 45 1002.6 - 0.2
13/04:31pm 12.3 - - - - N 76 80 41 43 1003.2 - 0.2
13/04:30pm 12.4 - - - - NNW 76 83 41 45 1003.4 - 0.2
13/04:23pm 11.9 - - - - NNW 76 83 41 45 1003.5 - 0.2
13/04:21pm 11.7 - - - - NW 80 87 43 47 1003.5 - 0.2
13/04:00pm 12.2 - - - - N 78 87 42 47 1002.6 - 0.2
13/03:50pm 12.3 - - - - N 76 83 41 45 1003.0 - 0.2
13/03:35pm 12.1 - - - - NNW 78 89 42 48 1003.3 - 0.2
13/03:33pm 11.6 - - - - N 76 85 41 46 1002.9 - 0.2
13/03:30pm 11.3 - - - - NW 76 85 41 46 1003.2 - 0.2
13/03:23pm 10.8 - - - - NW 78 85 42 46 1003.5 - 0.2
13/03:12pm 11.7 - - - - N 69 82 37 44 1002.9 - 0.2
13/03:07pm 12.4 - - - - NNW 76 83 41 45 1003.2 - 0.2
13/03:00pm 12.1 - - - - N 72 83 39 45 1003.0 1002.8 0.2
13/02:35pm 11.9 - - - - N 72 80 39 43 1002.6 - 0.2
13/02:30pm 12.5 - - - - NW 67 74 36 40 1003.2 - 0.2
13/02:27pm 12.2 - - - - N 69 72 37 39 1003.1 - 0.2
13/02:25pm 12.3 - - - - NNW 65 72 35 39 1003.3 - 0.2
13/02:19pm 12.3 - - - - N 70 80 38 43 1002.9 - 0.2
13/02:13pm 12.5 - - - - NW 69 74 37 40 1003.1 - 0.2
13/02:06pm 12.6 - - - - N 72 78 39 42 1002.8 - 0.2
13/02:00pm 12.5 - - - - NW 70 83 38 45 1002.9 - 0.2
13/01:30pm 12.0 - - - - NW 67 76 36 41 1002.7 - 0.2
13/01:16pm 12.9 - - - - NW 61 70 33 38 1002.9 - 0.2
13/01:14pm 12.6 - - - - N 65 74 35 40 1002.5 - 0.2
13/01:05pm 12.4 - - - - WNW 65 69 35 37 1002.7 - 0.2
13/01:00pm 12.4 - - - - NNW 65 72 35 39 1002.6 - 0.2
13/12:59pm 12.6 - - - - NNW 65 72 35 39 1002.4 - 0.2
13/12:53pm 12.2 - - - - NW 59 63 32 34 1002.6 - 0.2
13/12:51pm 12.2 - - - - NNW 65 72 35 39 1002.4 - 0.2
13/12:48pm 12.3 - - - - WNW 57 61 31 33 1002.7 - 0.2
13/12:38pm 12.0 - - - - NNW 59 65 32 35 1002.4 - 0.2
13/12:30pm 11.5 - - - - N 57 69 31 37 1002.1 - 0.2
13/12:00pm 10.6 - - - - N 61 69 33 37 1002.1 1002.0 0.2
13/11:47am 10.1 - - - - N 57 65 31 35 1001.9 - 0.2
13/11:37am 9.9 - - - - N 76 83 41 45 1001.3 - 0.0
13/11:35am 10.1 - - - - NW 69 76 37 41 1001.5 - 0.0
13/11:30am 10.7 - - - - N 61 69 33 37 1001.6 - 0.0
13/11:29am 10.9 - - - - N 57 69 31 37 1001.6 - 0.0
13/11:09am 10.0 - - - - NNW 50 54 27 29 1001.8 - 0.0
13/11:04am 9.9 - - - - N 54 57 29 31 1001.5 - 0.0
13/11:02am 9.8 - - - - NNW 56 59 30 32 1001.6 - 0.0
13/11:00am 9.8 - - - - N 61 70 33 38 1001.5 - 0.0
13/10:56am 9.5 - - - - N 65 70 35 38 1001.4 - 0.0
13/10:52am 9.4 - - - - NNW 72 78 39 42 1000.9 - 0.0
13/10:44am 10.3 - - - - W 54 80 29 43 1001.7 - 0.0
13/10:35am 9.6 - - - - W 50 65 27 35 1002.3 - 0.0
13/10:30am 10.2 - - - - WNW 59 72 32 39 1002.0 - 0.0
13/10:00am 10.9 - - - - WNW 63 72 34 39 1000.6 - 0.0
13/09:43am 10.7 - - - - NW 50 56 27 30 1000.6 - 0.0
13/09:30am 10.2 - - - - W 48 57 26 31 1000.5 - 0.0
13/09:29am 10.2 - - - - W 48 57 26 31 1000.6 - 0.0
13/09:21am 10.4 - - - - NW 61 67 33 36 1000.0 - 0.0
13/09:19am 10.6 - - - - N 57 67 31 36 999.9 - 0.0
13/09:14am 10.6 - - - - NW 54 59 29 32 1000.0 - 0.0
13/09:12am 10.5 - - - - N 57 63 31 34 999.8 - 0.0
13/09:00am 10.3 - - - - NW 57 69 31 37 999.6 999.5 5.0
13/08:30am 10.0 - - - - WNW 59 69 32 37 999.0 - 5.0

Other Formats:

Comma delimited format used in spreadsheet applications
http://www.bom.gov.au/fwo/IDT60801/IDT60801.94962.axf

JavaScript Object Notation format (JSON) in row-major order
http://www.bom.gov.au/fwo/IDT60801/IDT60801.94962.json